createdAt,value
2018-11-06T00:00:59.540Z,8.63
2018-11-06T00:01:59.975Z,8.63
2018-11-06T00:02:59.687Z,8.63
2018-11-06T00:03:59.513Z,8.63
2018-11-06T00:04:59.514Z,8.63
2018-11-06T00:05:59.583Z,8.63
2018-11-06T00:06:59.567Z,8.56
2018-11-06T00:08:01.890Z,8.63
2018-11-06T00:09:00.783Z,8.56
2018-11-06T00:09:59.560Z,8.56
2018-11-06T00:10:59.591Z,8.56
2018-11-06T00:11:59.537Z,8.56
2018-11-06T00:12:59.772Z,8.63
2018-11-06T00:13:59.572Z,8.56
2018-11-06T00:14:59.515Z,8.56
2018-11-06T00:15:59.610Z,8.56
2018-11-06T00:16:59.575Z,8.56
2018-11-06T00:17:59.623Z,8.5
2018-11-06T00:18:59.837Z,8.56
2018-11-06T00:20:01.720Z,8.5
2018-11-06T00:21:00.680Z,8.5
2018-11-06T00:21:59.512Z,8.5
2018-11-06T00:23:00.587Z,8.5
2018-11-06T00:23:59.603Z,8.5
2018-11-06T00:24:59.695Z,8.44
2018-11-06T00:25:59.629Z,8.5
2018-11-06T00:26:59.505Z,8.44
2018-11-06T00:27:59.483Z,8.44
2018-11-06T00:28:59.697Z,8.38
2018-11-06T00:30:01.704Z,8.44
2018-11-06T00:30:59.628Z,8.44
2018-11-06T00:31:59.571Z,8.44
2018-11-06T00:32:59.676Z,8.44
2018-11-06T00:34:01.145Z,8.44
2018-11-06T00:34:59.593Z,8.44
2018-11-06T00:35:59.543Z,8.44
2018-11-06T00:36:59.674Z,8.44
2018-11-06T00:37:59.723Z,8.5
2018-11-06T00:39:00.746Z,8.5
2018-11-06T00:39:59.517Z,8.5
2018-11-06T00:40:59.886Z,8.44
2018-11-06T00:41:59.708Z,8.5
2018-11-06T00:42:59.548Z,8.5
2018-11-06T00:43:59.542Z,8.5
2018-11-06T00:44:59.682Z,8.5
2018-11-06T00:45:59.582Z,8.5
2018-11-06T00:46:59.543Z,8.5
2018-11-06T00:48:01.162Z,8.44
2018-11-06T00:48:59.633Z,8.5
2018-11-06T00:49:59.694Z,8.5
2018-11-06T00:50:59.644Z,8.5
2018-11-06T00:51:59.728Z,8.5
2018-11-06T00:52:59.608Z,8.5
2018-11-06T00:54:00.484Z,8.5
2018-11-06T00:54:59.627Z,8.56
2018-11-06T00:55:59.532Z,8.5
2018-11-06T00:56:59.663Z,8.5
2018-11-06T00:57:59.673Z,8.5
2018-11-06T00:58:59.620Z,8.5
2018-11-06T00:59:59.511Z,8.44
2018-11-06T01:00:59.440Z,8.38
2018-11-06T01:01:59.644Z,8.25
2018-11-06T01:02:59.590Z,8.25
2018-11-06T01:03:59.626Z,8.25
2018-11-06T01:04:59.551Z,8.19
2018-11-06T01:05:59.462Z,8.25
2018-11-06T01:06:59.587Z,8.25
2018-11-06T01:07:59.610Z,8.25
2018-11-06T01:08:59.480Z,8.25
2018-11-06T01:10:00.215Z,8.31
2018-11-06T01:10:59.471Z,8.13
2018-11-06T01:11:59.478Z,8.06
2018-11-06T01:12:59.538Z,8.06
2018-11-06T01:13:59.596Z,8.13
2018-11-06T01:14:59.592Z,8.06
2018-11-06T01:15:59.576Z,8
2018-11-06T01:16:59.513Z,8.06
2018-11-06T01:17:59.483Z,7.87
2018-11-06T01:18:59.428Z,7.75
2018-11-06T01:19:59.555Z,7.62
2018-11-06T01:20:59.662Z,7.69
2018-11-06T01:21:59.746Z,7.62
2018-11-06T01:22:59.486Z,7.56
2018-11-06T01:23:59.509Z,7.56
2018-11-06T01:24:59.607Z,7.62
2018-11-06T01:25:59.513Z,7.56
2018-11-06T01:26:59.923Z,7.56
2018-11-06T01:27:59.906Z,7.44
2018-11-06T01:28:59.487Z,7.44
2018-11-06T01:29:59.556Z,7.44
2018-11-06T01:30:59.425Z,7.5
2018-11-06T01:31:59.596Z,7.56
2018-11-06T01:32:59.412Z,7.62
2018-11-06T01:33:59.984Z,7.62
2018-11-06T01:34:59.481Z,7.69
2018-11-06T01:35:59.429Z,7.69
2018-11-06T01:36:59.392Z,7.75
2018-11-06T01:37:59.449Z,7.75
2018-11-06T01:38:59.499Z,7.81
2018-11-06T01:40:00.103Z,7.81
2018-11-06T01:40:59.366Z,7.81
2018-11-06T01:41:59.454Z,7.81
2018-11-06T01:42:59.408Z,7.87
2018-11-06T01:43:59.383Z,7.87
2018-11-06T01:44:59.459Z,7.94
2018-11-06T01:45:59.444Z,7.94
2018-11-06T01:46:59.373Z,7.94
2018-11-06T01:47:59.454Z,7.94
2018-11-06T01:48:59.387Z,7.94
2018-11-06T01:49:59.435Z,8
2018-11-06T01:50:59.466Z,8
2018-11-06T01:51:59.426Z,8
2018-11-06T01:52:59.422Z,8.06
2018-11-06T01:53:59.499Z,8.06
2018-11-06T01:54:59.443Z,8.13
2018-11-06T01:55:59.429Z,8.06
2018-11-06T01:56:59.411Z,8.06
2018-11-06T01:57:59.463Z,8
2018-11-06T01:58:59.723Z,7.87
2018-11-06T01:59:59.502Z,7.94
2018-11-06T02:00:59.533Z,8
2018-11-06T02:01:59.443Z,8
2018-11-06T02:02:59.752Z,8
2018-11-06T02:03:59.432Z,8
2018-11-06T02:04:59.408Z,8
2018-11-06T02:05:59.560Z,7.94
2018-11-06T02:06:59.401Z,7.94
2018-11-06T02:07:59.411Z,7.94
2018-11-06T02:08:59.398Z,7.87
2018-11-06T02:09:59.359Z,7.94
2018-11-06T02:10:59.468Z,7.87
2018-11-06T02:11:59.383Z,7.87
2018-11-06T02:12:59.565Z,7.87
2018-11-06T02:13:59.354Z,7.87
2018-11-06T02:14:59.322Z,7.87
2018-11-06T02:15:59.387Z,7.87
2018-11-06T02:16:59.669Z,7.81
2018-11-06T02:17:59.445Z,7.81
2018-11-06T02:18:59.485Z,7.81
2018-11-06T02:19:59.488Z,7.75
2018-11-06T02:20:59.524Z,7.81
2018-11-06T02:21:59.425Z,7.81
2018-11-06T02:22:59.390Z,7.81
2018-11-06T02:23:59.443Z,7.81
2018-11-06T02:24:59.483Z,7.81
2018-11-06T02:25:59.345Z,7.81
2018-11-06T02:26:59.408Z,7.87
2018-11-06T02:27:59.365Z,7.87
2018-11-06T02:28:59.301Z,7.87
2018-11-06T02:29:59.352Z,7.87
2018-11-06T02:31:00.328Z,7.94
2018-11-06T02:31:59.508Z,7.94
2018-11-06T02:32:59.320Z,7.94
2018-11-06T02:33:59.285Z,7.94
2018-11-06T02:34:59.592Z,7.94
2018-11-06T02:35:59.406Z,7.94
2018-11-06T02:36:59.345Z,7.94
2018-11-06T02:37:59.306Z,7.94
2018-11-06T02:38:59.369Z,7.87
2018-11-06T02:39:59.518Z,7.87
2018-11-06T02:40:59.744Z,7.87
2018-11-06T02:41:59.329Z,7.94
2018-11-06T02:42:59.448Z,7.87
2018-11-06T02:43:59.422Z,7.94
2018-11-06T02:44:59.385Z,7.94
2018-11-06T02:45:59.296Z,7.94
2018-11-06T02:46:59.497Z,7.87
2018-11-06T02:47:59.421Z,7.81
2018-11-06T02:48:59.419Z,7.81
2018-11-06T02:49:59.427Z,7.87
2018-11-06T02:50:59.409Z,7.87
2018-11-06T02:51:59.516Z,7.87
2018-11-06T02:52:59.485Z,7.87
2018-11-06T02:53:59.762Z,7.87
2018-11-06T02:54:59.477Z,7.87
2018-11-06T02:56:00.538Z,7.87
2018-11-06T02:56:59.310Z,7.87
2018-11-06T02:57:59.372Z,7.81
2018-11-06T02:58:59.397Z,7.87
2018-11-06T02:59:59.455Z,7.81
2018-11-06T03:00:59.795Z,7.87
2018-11-06T03:01:59.389Z,7.81
2018-11-06T03:02:59.467Z,7.87
2018-11-06T03:03:59.284Z,7.81
2018-11-06T03:04:59.797Z,7.81
2018-11-06T03:05:59.372Z,7.81
2018-11-06T03:06:59.478Z,7.87
2018-11-06T03:07:59.303Z,7.75
2018-11-06T03:08:59.363Z,7.69
2018-11-06T03:09:59.383Z,7.69
2018-11-06T03:10:59.599Z,7.69
2018-11-06T03:11:59.360Z,7.81
2018-11-06T03:12:59.431Z,7.81
2018-11-06T03:13:59.316Z,7.81
2018-11-06T03:14:59.311Z,7.87
2018-11-06T03:15:59.401Z,7.87
2018-11-06T03:17:00.266Z,7.94
2018-11-06T03:17:59.301Z,7.94
2018-11-06T03:18:59.318Z,7.87
2018-11-06T03:19:59.275Z,7.87
2018-11-06T03:20:59.240Z,7.87
2018-11-06T03:21:59.260Z,7.87
2018-11-06T03:22:59.257Z,7.75
2018-11-06T03:24:00.862Z,7.75
2018-11-06T03:24:59.261Z,7.75
2018-11-06T03:25:59.371Z,7.75
2018-11-06T03:27:00.573Z,7.69
2018-11-06T03:27:59.292Z,7.69
2018-11-06T03:28:59.297Z,7.75
2018-11-06T03:29:59.303Z,7.69
2018-11-06T03:30:59.254Z,7.62
2018-11-06T03:31:59.306Z,7.62
2018-11-06T03:32:59.577Z,7.62
2018-11-06T03:33:59.601Z,7.56
2018-11-06T03:34:59.365Z,7.56
2018-11-06T03:35:59.651Z,7.5
2018-11-06T03:36:59.280Z,7.5
2018-11-06T03:37:59.292Z,7.37
2018-11-06T03:38:59.336Z,7.37
2018-11-06T03:39:59.305Z,7.44
2018-11-06T03:40:59.224Z,7.5
2018-11-06T03:41:59.235Z,7.44
2018-11-06T03:42:59.300Z,7.56
2018-11-06T03:43:59.380Z,7.56
2018-11-06T03:44:59.314Z,7.62
2018-11-06T03:45:59.728Z,7.69
2018-11-06T03:46:59.413Z,7.62
2018-11-06T03:47:59.227Z,7.56
2018-11-06T03:48:59.724Z,7.5
2018-11-06T03:49:59.347Z,7.56
2018-11-06T03:50:59.399Z,7.56
2018-11-06T03:51:59.589Z,7.62
2018-11-06T03:52:59.466Z,7.69
2018-11-06T03:53:59.331Z,7.69
2018-11-06T03:54:59.311Z,7.62
2018-11-06T03:55:59.425Z,7.69
2018-11-06T03:56:59.258Z,7.62
2018-11-06T03:58:00.074Z,7.62
2018-11-06T03:58:59.269Z,7.62
2018-11-06T04:00:00.389Z,7.69
2018-11-06T04:00:59.311Z,7.69
2018-11-06T04:01:59.198Z,7.69
2018-11-06T04:03:00.078Z,7.75
2018-11-06T04:03:59.375Z,7.69
2018-11-06T04:04:59.247Z,7.75
2018-11-06T04:05:59.234Z,7.75
2018-11-06T04:06:59.502Z,7.75
2018-11-06T04:07:59.358Z,7.69
2018-11-06T04:08:59.200Z,7.75
2018-11-06T04:09:59.180Z,7.75
2018-11-06T04:10:59.393Z,7.75
2018-11-06T04:11:59.338Z,7.75
2018-11-06T04:12:59.294Z,7.81
2018-11-06T04:13:59.214Z,7.81
2018-11-06T04:14:59.376Z,7.75
2018-11-06T04:15:59.265Z,7.75
2018-11-06T04:16:59.599Z,7.75
2018-11-06T04:17:59.307Z,7.69
2018-11-06T04:18:59.265Z,7.75
2018-11-06T04:20:00.380Z,7.75
2018-11-06T04:20:59.144Z,7.75
2018-11-06T04:21:59.322Z,7.81
2018-11-06T04:22:59.206Z,7.75
2018-11-06T04:23:59.282Z,7.81
2018-11-06T04:24:59.382Z,7.81
2018-11-06T04:25:59.304Z,7.81
2018-11-06T04:26:59.122Z,7.81
2018-11-06T04:27:59.260Z,7.81
2018-11-06T04:28:59.211Z,7.81
2018-11-06T04:29:59.346Z,7.81
2018-11-06T04:30:59.258Z,7.81
2018-11-06T04:31:59.084Z,7.81
2018-11-06T04:32:59.339Z,7.69
2018-11-06T04:33:59.387Z,7.69
2018-11-06T04:34:59.362Z,7.56
2018-11-06T04:35:59.182Z,7.44
2018-11-06T04:36:59.171Z,7.44
2018-11-06T04:37:59.217Z,7.44
2018-11-06T04:38:59.143Z,7.56
2018-11-06T04:39:59.336Z,7.56
2018-11-06T04:40:59.253Z,7.56
2018-11-06T04:41:59.204Z,7.56
2018-11-06T04:42:59.329Z,7.62
2018-11-06T04:43:59.261Z,7.62
2018-11-06T04:44:59.289Z,7.62
2018-11-06T04:45:59.255Z,7.62
2018-11-06T04:46:59.124Z,7.62
2018-11-06T04:47:59.135Z,7.69
2018-11-06T04:48:59.317Z,7.75
2018-11-06T04:49:59.281Z,7.75
2018-11-06T04:50:59.495Z,7.75
2018-11-06T04:51:59.091Z,7.69
2018-11-06T04:52:59.132Z,7.69
2018-11-06T04:53:59.315Z,7.69
2018-11-06T04:54:59.108Z,7.69
2018-11-06T04:55:59.129Z,7.69
2018-11-06T04:56:59.108Z,7.69
2018-11-06T04:57:59.071Z,7.75
2018-11-06T04:58:59.095Z,7.69
2018-11-06T04:59:59.146Z,7.69
2018-11-06T05:00:59.168Z,7.69
2018-11-06T05:01:59.413Z,7.69
2018-11-06T05:02:59.098Z,7.69
2018-11-06T05:03:59.132Z,7.75
2018-11-06T05:04:59.282Z,7.69
2018-11-06T05:05:59.067Z,7.75
2018-11-06T05:07:00.512Z,7.75
2018-11-06T05:07:59.043Z,7.75
2018-11-06T05:08:59.483Z,7.75
2018-11-06T05:09:59.252Z,7.81
2018-11-06T05:10:59.157Z,7.81
2018-11-06T05:11:59.176Z,7.81
2018-11-06T05:12:59.059Z,7.81
2018-11-06T05:13:59.351Z,7.81
2018-11-06T05:14:59.059Z,7.81
2018-11-06T05:15:59.271Z,7.81
2018-11-06T05:16:59.255Z,7.81
2018-11-06T05:17:59.232Z,7.87
2018-11-06T05:18:59.153Z,7.81
2018-11-06T05:19:59.232Z,7.87
2018-11-06T05:20:59.071Z,7.87
2018-11-06T05:21:59.378Z,7.87
2018-11-06T05:22:59.106Z,7.87
2018-11-06T05:23:59.274Z,7.87
2018-11-06T05:24:59.108Z,7.87
2018-11-06T05:25:59.220Z,7.87
2018-11-06T05:26:59.299Z,7.87
2018-11-06T05:27:59.603Z,7.87
2018-11-06T05:28:59.200Z,7.87
2018-11-06T05:29:59.184Z,7.87
2018-11-06T05:30:59.129Z,7.87
2018-11-06T05:31:59.251Z,7.87
2018-11-06T05:33:00.115Z,7.81
2018-11-06T05:33:59.073Z,7.87
2018-11-06T05:35:00.247Z,7.81
2018-11-06T05:35:59.128Z,7.81
2018-11-06T05:36:59.130Z,7.75
2018-11-06T05:37:59.151Z,7.75
2018-11-06T05:38:59.965Z,7.75
2018-11-06T05:39:59.134Z,7.75
2018-11-06T05:40:59.129Z,7.75
2018-11-06T05:41:59.151Z,7.75
2018-11-06T05:42:59.082Z,7.69
2018-11-06T05:43:59.789Z,7.69
2018-11-06T05:44:59.112Z,7.69
2018-11-06T05:45:59.101Z,7.69
2018-11-06T05:46:59.213Z,7.75
2018-11-06T05:47:59.092Z,7.62
2018-11-06T05:48:58.992Z,7.62
2018-11-06T05:49:59.202Z,7.62
2018-11-06T05:50:59.076Z,7.62
2018-11-06T05:51:59.073Z,7.62
2018-11-06T05:52:59.425Z,7.62
2018-11-06T05:53:59.213Z,7.56
2018-11-06T05:54:59.011Z,7.62
2018-11-06T05:55:59.190Z,7.56
2018-11-06T05:56:58.980Z,7.5
2018-11-06T05:57:59.322Z,7.44
2018-11-06T05:58:59.119Z,7.37
2018-11-06T05:59:58.986Z,7.37
2018-11-06T06:00:59.290Z,7.37
2018-11-06T06:01:59.064Z,7.31
2018-11-06T06:02:59.053Z,7.31
2018-11-06T06:03:59.007Z,7.37
2018-11-06T06:04:59.117Z,7.31
2018-11-06T06:05:59.272Z,7.37
2018-11-06T06:06:58.954Z,7.31
2018-11-06T06:07:58.958Z,7.37
2018-11-06T06:08:59.306Z,7.37
2018-11-06T06:09:59.164Z,7.44
2018-11-06T06:10:59.732Z,7.5
2018-11-06T06:11:58.983Z,7.5
2018-11-06T06:12:59.019Z,7.44
2018-11-06T06:13:59.205Z,7.37
2018-11-06T06:14:58.946Z,7.37
2018-11-06T06:15:58.936Z,7.37
2018-11-06T06:16:59.383Z,7.37
2018-11-06T06:17:59.134Z,7.44
2018-11-06T06:18:59.134Z,7.31
2018-11-06T06:19:59.142Z,7.12
2018-11-06T06:20:59.051Z,7
2018-11-06T06:21:59.115Z,7.12
2018-11-06T06:22:59.179Z,7.12
2018-11-06T06:23:59.697Z,7.19
2018-11-06T06:24:58.928Z,7.25
2018-11-06T06:25:58.970Z,7.12
2018-11-06T06:26:58.934Z,7.12
2018-11-06T06:27:59.050Z,7.12
2018-11-06T06:28:59.005Z,7.12
2018-11-06T06:29:59.117Z,7.12
2018-11-06T06:30:59.074Z,7.12
2018-11-06T06:31:58.956Z,7.12
2018-11-06T06:32:58.916Z,7.19
2018-11-06T06:33:59.298Z,7.19
2018-11-06T06:34:59.507Z,7.25
2018-11-06T06:35:59.080Z,7.25
2018-11-06T06:36:58.948Z,7.37
2018-11-06T06:37:59.034Z,7.31
2018-11-06T06:38:59.171Z,7.31
2018-11-06T06:39:59.386Z,7.31
2018-11-06T06:40:59.979Z,7.31
2018-11-06T06:41:58.902Z,7.31
2018-11-06T06:42:58.911Z,7.31
2018-11-06T06:43:58.980Z,7.31
2018-11-06T06:44:58.923Z,7.37
2018-11-06T06:45:59.325Z,7.37
2018-11-06T06:46:58.967Z,7.25
2018-11-06T06:47:59.145Z,7.25
2018-11-06T06:48:58.894Z,7.19
2018-11-06T06:49:59.064Z,7.12
2018-11-06T06:50:58.950Z,7
2018-11-06T06:51:59.158Z,7.06
2018-11-06T06:52:58.920Z,7
2018-11-06T06:53:59.577Z,6.94
2018-11-06T06:54:59.790Z,6.94
2018-11-06T06:55:59.126Z,6.94
2018-11-06T06:56:59.079Z,6.94
2018-11-06T06:57:59.199Z,6.94
2018-11-06T06:58:58.926Z,7
2018-11-06T06:59:58.931Z,7.06
2018-11-06T07:00:59.322Z,7.12
2018-11-06T07:01:59.244Z,7.12
2018-11-06T07:02:58.930Z,7.06
2018-11-06T07:03:58.961Z,7.06
2018-11-06T07:04:58.927Z,7.06
2018-11-06T07:05:58.891Z,7
2018-11-06T07:06:58.922Z,7
2018-11-06T07:07:58.885Z,6.94
2018-11-06T07:08:58.879Z,7
2018-11-06T07:09:59.040Z,7
2018-11-06T07:10:58.899Z,7.06
2018-11-06T07:11:58.859Z,7
2018-11-06T07:13:00.568Z,7.06
2018-11-06T07:13:58.951Z,7.06
2018-11-06T07:14:58.874Z,7.12
2018-11-06T07:15:59.056Z,7.06
2018-11-06T07:16:58.879Z,7.12
2018-11-06T07:17:58.917Z,7.12
2018-11-06T07:18:59.042Z,7.12
2018-11-06T07:19:59.058Z,7.12
2018-11-06T07:20:58.861Z,7.12
2018-11-06T07:21:58.892Z,7.19
2018-11-06T07:22:58.936Z,7.19
2018-11-06T07:23:58.842Z,7.19
2018-11-06T07:24:58.920Z,7.19
2018-11-06T07:25:58.854Z,7.25
2018-11-06T07:26:58.936Z,7.25
2018-11-06T07:27:58.937Z,7.25
2018-11-06T07:29:00.338Z,7.31
2018-11-06T07:29:59.160Z,7.31
2018-11-06T07:30:59.011Z,7.31
2018-11-06T07:31:58.926Z,7.31
2018-11-06T07:32:58.876Z,7.31
2018-11-06T07:33:58.861Z,7.37
2018-11-06T07:35:01.464Z,7.31
2018-11-06T07:35:59.731Z,7.25
2018-11-06T07:36:58.874Z,7.25
2018-11-06T07:37:59.200Z,7.19
2018-11-06T07:38:58.879Z,7.19
2018-11-06T07:39:59.049Z,7.19
2018-11-06T07:40:59.704Z,7.19
2018-11-06T07:41:58.912Z,7.19
2018-11-06T07:42:58.919Z,7.25
2018-11-06T07:43:58.908Z,7.25
2018-11-06T07:44:59.111Z,7.31
2018-11-06T07:45:58.963Z,7.31
2018-11-06T07:46:58.835Z,7.31
2018-11-06T07:47:58.922Z,7.25
2018-11-06T07:48:59.367Z,7.25
2018-11-06T07:50:00.018Z,7.25
2018-11-06T07:50:58.797Z,7.31
2018-11-06T07:51:58.776Z,7.31
2018-11-06T07:52:59.234Z,7.37
2018-11-06T07:53:59.174Z,7.31
2018-11-06T07:54:59.268Z,7.31
2018-11-06T07:55:59.426Z,7.31
2018-11-06T07:56:58.929Z,7.31
2018-11-06T07:57:59.229Z,7.25
2018-11-06T07:58:58.771Z,7.25
2018-11-06T07:59:59.219Z,7.25
2018-11-06T08:00:58.968Z,7.31
2018-11-06T08:01:58.849Z,7.19
2018-11-06T08:02:58.820Z,7.06
2018-11-06T08:03:59.120Z,7
2018-11-06T08:04:58.776Z,7.06
2018-11-06T08:05:58.922Z,7.06
2018-11-06T08:06:58.865Z,7.12
2018-11-06T08:07:59.360Z,7.12
2018-11-06T08:08:59.070Z,7.12
2018-11-06T08:09:58.885Z,7.12
2018-11-06T08:10:58.794Z,7.12
2018-11-06T08:11:58.781Z,7.12
2018-11-06T08:12:58.832Z,7.12
2018-11-06T08:13:58.797Z,7.12
2018-11-06T08:14:59.613Z,7.12
2018-11-06T08:15:58.819Z,7.19
2018-11-06T08:16:58.781Z,7.12
2018-11-06T08:17:59.421Z,7.19
2018-11-06T08:18:58.826Z,7.12
2018-11-06T08:19:58.812Z,7.19
2018-11-06T08:20:58.801Z,7.19
2018-11-06T08:21:58.783Z,7.19
2018-11-06T08:22:58.819Z,7.19
2018-11-06T08:23:59.359Z,7.19
2018-11-06T08:24:58.758Z,7.19
2018-11-06T08:25:59.089Z,7.19
2018-11-06T08:26:58.811Z,7.25
2018-11-06T08:27:58.881Z,7.25
2018-11-06T08:28:58.999Z,7.25
2018-11-06T08:29:59.109Z,7.25
2018-11-06T08:31:02.387Z,7.25
2018-11-06T08:32:03.904Z,7.25
2018-11-06T08:32:58.838Z,7.25
2018-11-06T08:33:58.912Z,7.19
2018-11-06T08:34:58.808Z,7.12
2018-11-06T08:35:58.738Z,7.12
2018-11-06T08:36:59.800Z,7.12
2018-11-06T08:37:58.781Z,7.12
2018-11-06T08:38:58.723Z,7.12
2018-11-06T08:39:58.800Z,7.19
2018-11-06T08:40:58.971Z,7.19
2018-11-06T08:41:58.801Z,7.19
2018-11-06T08:42:58.731Z,7.19
2018-11-06T08:43:58.746Z,7.19
2018-11-06T08:44:58.900Z,7.19
2018-11-06T08:45:58.952Z,7.19
2018-11-06T08:46:58.737Z,7.12
2018-11-06T08:47:59.680Z,7.19
2018-11-06T08:48:58.725Z,7.19
2018-11-06T08:49:58.785Z,7.19
2018-11-06T08:50:58.797Z,7.19
2018-11-06T08:51:58.771Z,7.19
2018-11-06T08:52:58.903Z,7.19
2018-11-06T08:53:58.766Z,7.19
2018-11-06T08:54:58.869Z,7.19
2018-11-06T08:55:58.779Z,7.19
2018-11-06T08:56:58.804Z,7.19
2018-11-06T08:57:58.749Z,7.19
2018-11-06T08:58:58.764Z,7.25
2018-11-06T08:59:58.913Z,7.19
2018-11-06T09:00:58.780Z,7.25
2018-11-06T09:01:58.745Z,7.19
2018-11-06T09:02:58.791Z,7.19
2018-11-06T09:03:58.936Z,7.19
2018-11-06T09:04:58.861Z,7.19
2018-11-06T09:05:58.826Z,7.12
2018-11-06T09:06:58.954Z,7.12
2018-11-06T09:07:58.814Z,7.19
2018-11-06T09:08:59.949Z,7.19
2018-11-06T09:09:58.998Z,7.19
2018-11-06T09:10:59.088Z,7.12
2018-11-06T09:11:59.097Z,7.06
2018-11-06T09:12:58.713Z,7
2018-11-06T09:13:58.901Z,7
2018-11-06T09:14:58.693Z,7.06
2018-11-06T09:15:58.765Z,7.06
2018-11-06T09:16:59.387Z,7.06
2018-11-06T09:17:58.905Z,7.12
2018-11-06T09:18:58.725Z,7.06
2018-11-06T09:19:58.680Z,7.06
2018-11-06T09:20:59.137Z,7
2018-11-06T09:21:58.776Z,7
2018-11-06T09:22:58.976Z,7
2018-11-06T09:23:58.672Z,7
2018-11-06T09:24:58.701Z,6.94
2018-11-06T09:25:58.732Z,6.94
2018-11-06T09:26:58.823Z,6.87
2018-11-06T09:27:58.940Z,6.94
2018-11-06T09:28:58.758Z,6.94
2018-11-06T09:29:58.763Z,7
2018-11-06T09:31:00.056Z,6.94
2018-11-06T09:31:59.059Z,7.06
2018-11-06T09:32:58.940Z,7.06
2018-11-06T09:33:58.795Z,7.06
2018-11-06T09:34:59.175Z,7.06
2018-11-06T09:35:58.810Z,7.06
2018-11-06T09:36:58.711Z,7.12
2018-11-06T09:37:58.652Z,7.12
2018-11-06T09:38:59.027Z,7.12
2018-11-06T09:39:58.677Z,7.12
2018-11-06T09:40:58.664Z,7.12
2018-11-06T09:41:58.649Z,7.12
2018-11-06T09:42:58.899Z,7.12
2018-11-06T09:43:58.684Z,7.12
2018-11-06T09:44:59.129Z,7.12
2018-11-06T09:45:58.971Z,7.12
2018-11-06T09:46:58.643Z,7.12
2018-11-06T09:47:58.601Z,7.12
2018-11-06T09:48:58.625Z,7.19
2018-11-06T09:49:58.652Z,7.12
2018-11-06T09:50:58.637Z,7.12
2018-11-06T09:51:59.187Z,7.12
2018-11-06T09:52:58.654Z,7.12
2018-11-06T09:53:58.657Z,7.19
2018-11-06T09:54:58.633Z,7.19
2018-11-06T09:55:58.611Z,7.19
2018-11-06T09:56:59.007Z,7.19
2018-11-06T09:57:58.708Z,7.25
2018-11-06T09:58:58.646Z,7.25
2018-11-06T09:59:58.908Z,7.25
2018-11-06T10:00:59.470Z,7.19
2018-11-06T10:01:58.685Z,7.19
2018-11-06T10:02:58.672Z,7.12
2018-11-06T10:03:58.917Z,7.19
2018-11-06T10:04:58.679Z,7.19
2018-11-06T10:05:59.280Z,7.19
2018-11-06T10:07:02.075Z,7.19
2018-11-06T10:07:58.881Z,7.25
2018-11-06T10:08:58.680Z,7.31
2018-11-06T10:09:58.620Z,7.31
2018-11-06T10:10:58.643Z,7.37
2018-11-06T10:11:58.822Z,7.37
2018-11-06T10:12:58.755Z,7.31
2018-11-06T10:13:58.641Z,7.25
2018-11-06T10:14:58.777Z,7.25
2018-11-06T10:15:58.585Z,7.25
2018-11-06T10:16:58.817Z,7.31
2018-11-06T10:17:58.635Z,7.37
2018-11-06T10:18:58.667Z,7.44
2018-11-06T10:19:58.932Z,7.44
2018-11-06T10:20:58.778Z,7.56
2018-11-06T10:21:58.732Z,7.56
2018-11-06T10:22:58.645Z,7.62
2018-11-06T10:23:59.030Z,7.62
2018-11-06T10:24:58.762Z,7.69
2018-11-06T10:25:58.808Z,7.56
2018-11-06T10:26:58.743Z,7.5
2018-11-06T10:27:58.583Z,7.44
2018-11-06T10:28:58.668Z,7.44
2018-11-06T10:29:58.620Z,7.37
2018-11-06T10:30:59.026Z,7.44
2018-11-06T10:31:58.633Z,7.44
2018-11-06T10:32:58.649Z,7.44
2018-11-06T10:33:58.635Z,7.5
2018-11-06T10:34:58.596Z,7.5
2018-11-06T10:35:58.688Z,7.56
2018-11-06T10:36:58.830Z,7.56
2018-11-06T10:37:58.914Z,7.62
2018-11-06T10:38:58.829Z,7.56
2018-11-06T10:39:58.801Z,7.62
2018-11-06T10:40:58.703Z,7.5
2018-11-06T10:41:58.609Z,7.56
2018-11-06T10:42:58.735Z,7.56
2018-11-06T10:43:58.586Z,7.62
2018-11-06T10:44:58.771Z,7.62
2018-11-06T10:45:58.624Z,7.62
2018-11-06T10:46:58.575Z,7.62
2018-11-06T10:47:58.549Z,7.75
2018-11-06T10:48:58.869Z,7.81
2018-11-06T10:49:58.598Z,7.81
2018-11-06T10:50:58.591Z,7.87
2018-11-06T10:51:58.732Z,7.87
2018-11-06T10:52:58.543Z,7.87
2018-11-06T10:53:58.630Z,7.87
2018-11-06T10:54:58.627Z,7.75
2018-11-06T10:55:58.702Z,7.75
2018-11-06T10:56:58.570Z,7.81
2018-11-06T10:57:59.019Z,7.75
2018-11-06T10:58:58.672Z,7.75
2018-11-06T10:59:58.576Z,7.75
2018-11-06T11:00:58.660Z,7.81
2018-11-06T11:01:58.583Z,7.81
2018-11-06T11:02:58.551Z,7.75
2018-11-06T11:03:58.939Z,7.81
2018-11-06T11:04:59.370Z,7.81
2018-11-06T11:05:58.573Z,7.81
2018-11-06T11:06:58.781Z,7.81
2018-11-06T11:07:58.544Z,7.81
2018-11-06T11:08:58.718Z,7.81
2018-11-06T11:09:58.666Z,7.81
2018-11-06T11:10:58.521Z,7.69
2018-11-06T11:11:58.611Z,7.75
2018-11-06T11:12:58.618Z,7.75
2018-11-06T11:13:58.533Z,7.69
2018-11-06T11:14:58.622Z,7.69
2018-11-06T11:15:58.573Z,7.69
2018-11-06T11:16:58.530Z,7.69
2018-11-06T11:17:58.552Z,7.69
2018-11-06T11:18:58.525Z,7.81
2018-11-06T11:19:58.848Z,7.75
2018-11-06T11:20:58.544Z,7.75
2018-11-06T11:21:58.544Z,7.69
2018-11-06T11:22:58.673Z,7.69
2018-11-06T11:23:58.528Z,7.69
2018-11-06T11:25:00.768Z,7.75
2018-11-06T11:25:58.527Z,7.75
2018-11-06T11:26:58.537Z,7.81
2018-11-06T11:27:58.588Z,7.81
2018-11-06T11:28:58.575Z,7.81
2018-11-06T11:29:58.624Z,7.81
2018-11-06T11:30:58.540Z,7.87
2018-11-06T11:31:59.423Z,7.87
2018-11-06T11:32:58.845Z,7.94
2018-11-06T11:33:58.764Z,7.87
2018-11-06T11:34:58.574Z,7.94
2018-11-06T11:35:58.502Z,7.94
2018-11-06T11:36:58.607Z,8
2018-11-06T11:37:58.576Z,7.94
2018-11-06T11:38:59.413Z,7.94
2018-11-06T11:39:58.501Z,7.94
2018-11-06T11:40:58.559Z,7.87
2018-11-06T11:41:58.497Z,8
2018-11-06T11:42:58.791Z,7.94
2018-11-06T11:43:58.557Z,8
2018-11-06T11:44:58.564Z,8
2018-11-06T11:45:59.925Z,8.06
2018-11-06T11:46:58.647Z,8.06
2018-11-06T11:47:58.927Z,8.06
2018-11-06T11:48:58.530Z,8.13
2018-11-06T11:49:58.633Z,8.19
2018-11-06T11:50:58.588Z,8.19
2018-11-06T11:51:58.572Z,8.25
2018-11-06T11:52:58.511Z,8.25
2018-11-06T11:53:58.529Z,8.31
2018-11-06T11:54:58.604Z,8.31
2018-11-06T11:55:58.580Z,8.38
2018-11-06T11:56:58.506Z,8.38
2018-11-06T11:57:58.469Z,8.31
2018-11-06T11:58:58.535Z,8.44
2018-11-06T11:59:59.038Z,8.38
2018-11-06T12:00:58.727Z,8.44
2018-11-06T12:01:58.734Z,8.44
2018-11-06T12:02:58.457Z,8.44
2018-11-06T12:03:58.891Z,8.44
2018-11-06T12:04:58.640Z,8.44
2018-11-06T12:05:58.616Z,8.44
2018-11-06T12:06:58.569Z,8.44
2018-11-06T12:07:58.508Z,8.44
2018-11-06T12:08:58.508Z,8.44
2018-11-06T12:09:58.537Z,8.44
2018-11-06T12:10:58.498Z,8.38
2018-11-06T12:11:58.496Z,8.44
2018-11-06T12:12:58.472Z,8.38
2018-11-06T12:13:58.489Z,8.38
2018-11-06T12:14:58.676Z,8.38
2018-11-06T12:15:58.681Z,8.38
2018-11-06T12:16:58.509Z,8.44
2018-11-06T12:17:58.672Z,8.38
2018-11-06T12:18:58.465Z,8.38
2018-11-06T12:19:58.618Z,8.44
2018-11-06T12:20:58.710Z,8.44
2018-11-06T12:21:58.639Z,8.5
2018-11-06T12:22:58.565Z,8.56
2018-11-06T12:23:58.934Z,8.63
2018-11-06T12:25:01.283Z,8.56
2018-11-06T12:25:58.585Z,8.5
2018-11-06T12:26:59.741Z,8.44
2018-11-06T12:27:58.427Z,8.44
2018-11-06T12:28:58.474Z,8.44
2018-11-06T12:29:58.850Z,8.44
2018-11-06T12:30:58.406Z,8.44
2018-11-06T12:31:58.594Z,8.44
2018-11-06T12:32:58.543Z,8.44
2018-11-06T12:33:58.833Z,8.44
2018-11-06T12:34:58.478Z,8.5
2018-11-06T12:35:58.689Z,8.56
2018-11-06T12:36:59.638Z,8.63
2018-11-06T12:37:58.456Z,8.69
2018-11-06T12:38:58.462Z,8.63
2018-11-06T12:39:58.467Z,8.69
2018-11-06T12:40:58.551Z,8.75
2018-11-06T12:41:58.457Z,8.75
2018-11-06T12:42:59.196Z,8.75
2018-11-06T12:43:58.448Z,8.75
2018-11-06T12:44:58.426Z,8.75
2018-11-06T12:45:58.435Z,8.75
2018-11-06T12:46:58.382Z,8.69
2018-11-06T12:47:58.424Z,8.69
2018-11-06T12:48:58.450Z,8.75
2018-11-06T12:49:58.395Z,8.81
2018-11-06T12:50:58.518Z,8.75
2018-11-06T12:51:58.404Z,8.81
2018-11-06T12:52:58.478Z,8.81
2018-11-06T12:53:58.653Z,8.81
2018-11-06T12:54:58.395Z,8.81
2018-11-06T12:55:58.838Z,8.88
2018-11-06T12:56:58.414Z,8.88
2018-11-06T12:57:58.462Z,8.94
2018-11-06T12:58:58.737Z,8.94
2018-11-06T12:59:58.421Z,8.94
2018-11-06T13:00:58.370Z,9
2018-11-06T13:01:58.474Z,9.06
2018-11-06T13:02:58.401Z,9.06
2018-11-06T13:03:58.498Z,9
2018-11-06T13:04:58.377Z,9.06
2018-11-06T13:05:58.408Z,9.06
2018-11-06T13:06:58.476Z,9.13
2018-11-06T13:08:14.305Z,9.13
2018-11-06T13:08:58.500Z,9.19
2018-11-06T13:09:59.143Z,9.13
2018-11-06T13:10:58.430Z,9.19
2018-11-06T13:11:58.369Z,9.19
2018-11-06T13:12:58.392Z,9.19
2018-11-06T13:13:58.452Z,9.25
2018-11-06T13:14:59.714Z,9.25
2018-11-06T13:15:59.350Z,9.25
2018-11-06T13:16:58.964Z,9.25
2018-11-06T13:17:58.548Z,9.31
2018-11-06T13:18:58.590Z,9.31
2018-11-06T13:19:58.391Z,9.38
2018-11-06T13:20:58.442Z,9.31
2018-11-06T13:21:58.482Z,9.44
2018-11-06T13:22:58.485Z,9.31
2018-11-06T13:23:58.549Z,9.38